createdAt,value
2023-04-27T00:01:09.792Z,102048.56
2023-04-27T00:03:37.057Z,102047.31
2023-04-27T00:06:04.324Z,102059.34
2023-04-27T00:08:32.014Z,102065.53
2023-04-27T00:11:00.124Z,102063.38
2023-04-27T00:13:27.523Z,102064.47
2023-04-27T00:15:55.191Z,102068.59
2023-04-27T00:18:22.279Z,102066.41
2023-04-27T00:20:49.432Z,102060.41
2023-04-27T00:23:16.489Z,102063.47
2023-04-27T00:25:43.562Z,102065.53
2023-04-27T00:28:10.663Z,102067.31
2023-04-27T00:30:37.774Z,102056.16
2023-04-27T00:33:05.319Z,102063.84
2023-04-27T00:35:33.465Z,102062.16
2023-04-27T00:38:00.643Z,102057.81
2023-04-27T00:40:27.752Z,102045.84
2023-04-27T00:42:55.501Z,102064.03
2023-04-27T00:45:22.591Z,102053.91
2023-04-27T00:47:49.921Z,102055.25
2023-04-27T00:50:22.497Z,102047.47
2023-04-27T00:52:49.823Z,102058.81
2023-04-27T00:55:16.938Z,102063.53
2023-04-27T00:57:44.068Z,102067.19
2023-04-27T01:00:11.814Z,102065.88
2023-04-27T01:02:40.188Z,102067.34
2023-04-27T01:05:08.659Z,102066.63
2023-04-27T01:07:39.761Z,102058.94
2023-04-27T01:10:07.753Z,102056.19
2023-04-27T01:12:35.040Z,102051.97
2023-04-27T01:15:02.203Z,102037.06
2023-04-27T01:17:29.350Z,102048.09
2023-04-27T01:19:56.827Z,102042.97
2023-04-27T01:22:24.280Z,102052.53
2023-04-27T01:24:51.744Z,102047.91
2023-04-27T01:27:19.087Z,102049.84
2023-04-27T01:29:46.227Z,102067.66
2023-04-27T01:32:13.659Z,102056.50
2023-04-27T01:34:40.814Z,102059.16
2023-04-27T01:37:07.937Z,102053.53
2023-04-27T01:39:35.623Z,102059.28
2023-04-27T01:42:03.715Z,102051.50
2023-04-27T01:44:31.010Z,102053.09
2023-04-27T01:46:58.138Z,102048.94
2023-04-27T01:49:25.911Z,102037.50
2023-04-27T01:51:52.992Z,102041.16
2023-04-27T01:54:20.050Z,102038.69
2023-04-27T01:56:47.229Z,102036.81
2023-04-27T01:59:14.590Z,102032.72
2023-04-27T02:01:41.944Z,102036.63
2023-04-27T02:04:09.187Z,102027.97
2023-04-27T02:06:36.497Z,102039.34
2023-04-27T02:09:03.595Z,102046.78
2023-04-27T02:11:30.648Z,102037.16
2023-04-27T02:13:57.904Z,102042.34
2023-04-27T02:16:25.017Z,102031.13
2023-04-27T02:18:53.789Z,102033.59
2023-04-27T02:21:21.105Z,102040.59
2023-04-27T02:23:48.275Z,102045.59
2023-04-27T02:26:22.382Z,102047.16
2023-04-27T02:28:50.134Z,102030.31
2023-04-27T02:31:17.662Z,102034.19
2023-04-27T02:33:44.797Z,102039.63
2023-04-27T02:36:11.854Z,102024.19
2023-04-27T02:38:42.448Z,102030.31
2023-04-27T02:41:09.517Z,102021.63
2023-04-27T02:43:36.621Z,102027.59
2023-04-27T02:46:04.547Z,102025.50
2023-04-27T02:48:31.893Z,102025.84
2023-04-27T02:50:59.082Z,102021.09
2023-04-27T02:53:26.281Z,102023.41
2023-04-27T02:55:53.405Z,102017.88
2023-04-27T02:58:20.596Z,102017.66
2023-04-27T03:00:48.862Z,102020.97
2023-04-27T03:03:16.279Z,102021.53
2023-04-27T03:05:43.508Z,102020.66
2023-04-27T03:08:10.645Z,102023.31
2023-04-27T03:10:37.854Z,102027.75
2023-04-27T03:13:06.137Z,102020.22
2023-04-27T03:15:33.301Z,102009.81
2023-04-27T03:18:00.469Z,102028.56
2023-04-27T03:20:27.588Z,102027.91
2023-04-27T03:22:55.274Z,102028.22
2023-04-27T03:25:22.525Z,102035.78
2023-04-27T03:27:49.675Z,102037.00
2023-04-27T03:30:16.821Z,102042.00
2023-04-27T03:32:45.498Z,102046.78
2023-04-27T03:35:14.257Z,102035.56
2023-04-27T03:37:41.412Z,102034.59
2023-04-27T03:40:09.202Z,102015.59
2023-04-27T03:42:36.323Z,102022.03
2023-04-27T03:45:04.183Z,102029.47
2023-04-27T03:47:31.533Z,102025.81
2023-04-27T03:49:58.693Z,102029.25
2023-04-27T03:52:26.455Z,102035.25
2023-04-27T03:54:53.500Z,102023.38
2023-04-27T03:57:20.563Z,102034.00
2023-04-27T03:59:47.606Z,102030.25
2023-04-27T04:02:15.176Z,102027.47
2023-04-27T04:04:42.660Z,102036.13
2023-04-27T04:07:09.995Z,102041.13
2023-04-27T04:09:37.123Z,102039.03
2023-04-27T04:12:04.615Z,102042.25
2023-04-27T04:14:31.918Z,102042.59
2023-04-27T04:16:59.033Z,102042.34
2023-04-27T04:19:26.062Z,102041.56
2023-04-27T04:21:54.729Z,102044.13
2023-04-27T04:24:21.778Z,102042.44
2023-04-27T04:26:48.930Z,102049.13
2023-04-27T04:29:16.983Z,102053.13
2023-04-27T04:31:44.325Z,102054.44
2023-04-27T04:34:11.505Z,102060.31
2023-04-27T04:36:38.574Z,102062.66
2023-04-27T04:39:07.017Z,102067.75
2023-04-27T04:41:34.108Z,102043.22
2023-04-27T04:44:01.646Z,102070.41
2023-04-27T04:46:28.840Z,102072.78
2023-04-27T04:48:58.684Z,102075.94
2023-04-27T04:51:26.697Z,102076.44
2023-04-27T04:53:53.914Z,102072.22
2023-04-27T04:56:21.200Z,102074.19
2023-04-27T04:58:48.365Z,102079.44
2023-04-27T05:01:16.060Z,102067.56
2023-04-27T05:03:43.286Z,102068.13
2023-04-27T05:06:10.551Z,102067.13
2023-04-27T05:08:37.645Z,102066.00
2023-04-27T05:11:04.934Z,102069.34
2023-04-27T05:13:32.047Z,102071.63
2023-04-27T05:15:59.235Z,102053.97
2023-04-27T05:18:26.386Z,102071.72
2023-04-27T05:20:53.758Z,102073.97
2023-04-27T05:23:21.062Z,102058.63
2023-04-27T05:25:48.111Z,102067.13
2023-04-27T05:28:15.984Z,102059.09
2023-04-27T05:30:43.032Z,102067.66
2023-04-27T05:33:10.152Z,102076.66
2023-04-27T05:35:37.333Z,102081.19
2023-04-27T05:38:04.957Z,102062.50
2023-04-27T05:40:32.295Z,102085.13
2023-04-27T05:43:01.826Z,102087.31
2023-04-27T05:45:28.917Z,102083.97
2023-04-27T05:47:56.030Z,102084.13
2023-04-27T05:50:23.277Z,102070.97
2023-04-27T05:52:50.929Z,102087.34
2023-04-27T05:55:18.081Z,102084.03
2023-04-27T05:57:47.697Z,102080.47
2023-04-27T06:00:17.508Z,102079.91
2023-04-27T06:02:44.766Z,102072.91
2023-04-27T06:05:12.144Z,102080.34
2023-04-27T06:07:39.597Z,102083.84
2023-04-27T06:10:07.680Z,102086.91
2023-04-27T06:12:35.371Z,102083.81
2023-04-27T06:15:09.303Z,102084.69
2023-04-27T06:17:36.783Z,102077.72
2023-04-27T06:20:07.398Z,102073.88
2023-04-27T06:22:37.028Z,102072.03
2023-04-27T06:25:05.793Z,102064.69
2023-04-27T06:27:33.854Z,102074.94
2023-04-27T06:30:01.722Z,102068.38
2023-04-27T06:32:28.952Z,102084.41
2023-04-27T06:34:56.705Z,102087.97
2023-04-27T06:37:24.196Z,102084.69
2023-04-27T06:39:51.492Z,102097.63
2023-04-27T06:42:18.593Z,102100.22
2023-04-27T06:44:46.223Z,102100.56
2023-04-27T06:47:13.701Z,102095.88
2023-04-27T06:49:40.785Z,102084.16
2023-04-27T06:52:07.923Z,102093.63
2023-04-27T06:54:35.235Z,102091.16
2023-04-27T06:57:03.509Z,102085.13
2023-04-27T06:59:30.813Z,102090.88
2023-04-27T07:01:57.992Z,102086.28
2023-04-27T07:04:28.189Z,102075.09
2023-04-27T07:06:56.400Z,102074.44
2023-04-27T07:09:27.575Z,102087.94
2023-04-27T07:11:55.839Z,102094.75
2023-04-27T07:14:22.926Z,102085.19
2023-04-27T07:16:50.273Z,102095.81
2023-04-27T07:19:17.631Z,102093.91
2023-04-27T07:21:44.806Z,102090.28
2023-04-27T07:24:11.951Z,102109.38
2023-04-27T07:26:39.502Z,102103.16
2023-04-27T07:29:19.034Z,102097.41
2023-04-27T07:31:53.259Z,102098.31
2023-04-27T07:34:20.397Z,102094.31
2023-04-27T07:36:47.792Z,102094.31
2023-04-27T07:39:15.047Z,102081.84
2023-04-27T07:41:42.338Z,102079.06
2023-04-27T07:44:09.525Z,102088.03
2023-04-27T07:46:38.488Z,102085.44
2023-04-27T07:49:05.741Z,102076.34
2023-04-27T07:51:35.258Z,102088.09
2023-04-27T07:54:05.394Z,102074.34
2023-04-27T07:56:33.067Z,102073.34
2023-04-27T07:59:00.272Z,102095.16
2023-04-27T08:01:27.457Z,102071.56
2023-04-27T08:03:55.337Z,102081.88
2023-04-27T08:06:23.582Z,102088.41
2023-04-27T08:08:51.477Z,102082.63
2023-04-27T08:11:18.576Z,102083.59
2023-04-27T08:13:45.921Z,102083.28
2023-04-27T08:16:13.129Z,102088.78
2023-04-27T08:18:40.392Z,102085.88
2023-04-27T08:21:07.400Z,102097.94
2023-04-27T08:23:37.117Z,102089.25
2023-04-27T08:26:05.059Z,102089.59
2023-04-27T08:28:32.232Z,102094.28
2023-04-27T08:30:59.895Z,102086.41
2023-04-27T08:33:27.098Z,102087.88
2023-04-27T08:35:55.274Z,102089.78
2023-04-27T08:38:25.040Z,102078.06
2023-04-27T08:40:52.821Z,102072.34
2023-04-27T08:43:19.934Z,102083.56
2023-04-27T08:45:50.552Z,102087.16
2023-04-27T08:48:17.801Z,102088.03
2023-04-27T08:50:48.759Z,102085.66
2023-04-27T08:53:23.385Z,102079.59
2023-04-27T08:55:51.458Z,102087.16
2023-04-27T08:58:19.285Z,102082.47
2023-04-27T09:00:47.942Z,102068.84
2023-04-27T09:03:26.094Z,102081.16
2023-04-27T09:06:05.195Z,102078.00
2023-04-27T09:08:48.410Z,102086.88
2023-04-27T09:11:29.565Z,102079.16
2023-04-27T09:13:58.759Z,102083.13
2023-04-27T09:16:28.555Z,102086.63
2023-04-27T09:18:57.771Z,102089.31
2023-04-27T09:21:29.159Z,102075.75
2023-04-27T09:23:57.430Z,102079.56
2023-04-27T09:26:27.138Z,102075.47
2023-04-27T09:28:57.932Z,102073.91
2023-04-27T09:31:35.862Z,102072.06
2023-04-27T09:34:04.142Z,102068.28
2023-04-27T09:36:32.772Z,102057.19
2023-04-27T09:39:06.491Z,102066.88
2023-04-27T09:41:34.168Z,102057.06
2023-04-27T09:44:02.042Z,102056.59
2023-04-27T09:46:29.980Z,102047.16
2023-04-27T09:48:58.192Z,102058.78
2023-04-27T09:51:26.098Z,102056.91
2023-04-27T09:53:58.435Z,102046.63
2023-04-27T09:56:57.661Z,102045.91
2023-04-27T09:59:44.724Z,102044.09
2023-04-27T10:02:25.183Z,102048.75
2023-04-27T10:05:27.549Z,102049.69
2023-04-27T10:07:55.527Z,102039.88
2023-04-27T10:10:22.612Z,102042.63
2023-04-27T10:12:57.776Z,102039.25
2023-04-27T10:15:29.802Z,102042.81
2023-04-27T10:18:03.615Z,102042.91
2023-04-27T10:20:33.167Z,102048.31
2023-04-27T10:23:00.836Z,102047.19
2023-04-27T10:25:30.360Z,102047.34
2023-04-27T10:28:02.068Z,102044.53
2023-04-27T10:30:39.675Z,102051.03
2023-04-27T10:33:09.311Z,102047.97
2023-04-27T10:35:46.036Z,102034.41
2023-04-27T10:38:21.798Z,102038.03
2023-04-27T10:41:05.422Z,102028.56
2023-04-27T10:43:37.822Z,102039.09
2023-04-27T10:46:12.833Z,102031.34
2023-04-27T10:48:41.278Z,102037.03
2023-04-27T10:51:08.478Z,102031.97
2023-04-27T10:53:36.858Z,102031.44
2023-04-27T10:56:07.048Z,102023.59
2023-04-27T10:58:48.120Z,102034.28
2023-04-27T11:01:29.765Z,102030.53
2023-04-27T11:04:01.749Z,102030.03
2023-04-27T11:06:34.113Z,102025.25
2023-04-27T11:09:01.710Z,102029.41
2023-04-27T11:11:28.875Z,102013.00
2023-04-27T11:13:56.479Z,102021.03
2023-04-27T11:16:24.243Z,102021.91
2023-04-27T11:18:51.414Z,101994.63
2023-04-27T11:21:23.631Z,102009.44
2023-04-27T11:23:51.265Z,102008.56
2023-04-27T11:26:21.517Z,101993.31
2023-04-27T11:29:06.285Z,101989.50
2023-04-27T11:31:43.415Z,101999.59
2023-04-27T11:34:17.093Z,101999.31
2023-04-27T11:36:44.840Z,101974.00
2023-04-27T11:39:21.973Z,101976.28
2023-04-27T11:41:49.246Z,102004.25
2023-04-27T11:44:19.825Z,101985.25
2023-04-27T11:46:47.740Z,101981.53
2023-04-27T11:49:15.510Z,101983.09
2023-04-27T11:51:45.078Z,101980.00
2023-04-27T11:54:13.337Z,101988.38
2023-04-27T11:56:43.267Z,101975.72
2023-04-27T11:59:21.693Z,101979.44
2023-04-27T12:01:49.098Z,101978.03
2023-04-27T12:04:17.214Z,101972.97
2023-04-27T12:06:44.716Z,101961.66
2023-04-27T12:09:12.241Z,101953.50
2023-04-27T12:11:39.635Z,101965.28
2023-04-27T12:14:08.189Z,101975.28
2023-04-27T12:16:35.795Z,101926.19
2023-04-27T12:19:03.146Z,101967.72
2023-04-27T12:21:32.107Z,101972.03
2023-04-27T12:23:59.265Z,101965.59
2023-04-27T12:26:26.817Z,101969.34
2023-04-27T12:28:54.250Z,101943.72
2023-04-27T12:31:26.937Z,101957.50
2023-04-27T12:33:57.684Z,101936.47
2023-04-27T12:36:27.202Z,101944.69
2023-04-27T12:38:59.156Z,101946.34
2023-04-27T12:41:26.586Z,101926.59
2023-04-27T12:43:54.300Z,101945.66
2023-04-27T12:46:21.540Z,101932.78
2023-04-27T12:48:48.874Z,101930.22
2023-04-27T12:51:17.476Z,101938.06
2023-04-27T12:53:44.756Z,101931.28
2023-04-27T12:56:12.469Z,101929.00
2023-04-27T12:58:40.085Z,101927.06
2023-04-27T13:01:14.708Z,101920.59
2023-04-27T13:03:48.431Z,101926.66
2023-04-27T13:06:18.125Z,101927.69
2023-04-27T13:08:46.035Z,101916.06
2023-04-27T13:11:13.163Z,101920.00
2023-04-27T13:13:41.116Z,101920.25
2023-04-27T13:16:08.547Z,101923.63
2023-04-27T13:18:35.931Z,101927.94
2023-04-27T13:21:05.233Z,101907.16
2023-04-27T13:23:32.677Z,101914.66
2023-04-27T13:26:00.115Z,101901.91
2023-04-27T13:28:27.223Z,101896.66
2023-04-27T13:30:55.629Z,101894.84
2023-04-27T13:33:23.833Z,101895.09
2023-04-27T13:35:51.902Z,101880.13
2023-04-27T13:38:19.041Z,101886.41
2023-04-27T13:40:47.245Z,101886.56
2023-04-27T13:43:14.362Z,101881.31
2023-04-27T13:45:42.687Z,101881.34
2023-04-27T13:48:10.227Z,101883.09
2023-04-27T13:50:37.841Z,101874.38
2023-04-27T13:53:05.316Z,101863.03
2023-04-27T13:55:32.488Z,101862.13
2023-04-27T13:57:59.617Z,101872.59
2023-04-27T14:00:28.790Z,101862.06
2023-04-27T14:02:56.184Z,101862.13
2023-04-27T14:05:23.397Z,101855.22
2023-04-27T14:07:50.595Z,101862.19
2023-04-27T14:10:17.825Z,101864.78
2023-04-27T14:12:45.926Z,101848.19
2023-04-27T14:15:13.024Z,101848.16
2023-04-27T14:17:40.477Z,101842.94
2023-04-27T14:20:08.347Z,101840.31
2023-04-27T14:22:36.179Z,101846.44
2023-04-27T14:25:03.785Z,101842.91
2023-04-27T14:27:31.154Z,101827.19
2023-04-27T14:29:58.363Z,101835.09
2023-04-27T14:32:26.463Z,101834.19
2023-04-27T14:34:54.277Z,101828.09
2023-04-27T14:37:21.430Z,101830.69
2023-04-27T14:39:48.728Z,101815.84
2023-04-27T14:42:16.345Z,101834.19
2023-04-27T14:44:43.566Z,101835.84
2023-04-27T14:47:10.815Z,101829.53
2023-04-27T14:49:38.116Z,101821.72
2023-04-27T14:52:06.749Z,101827.16
2023-04-27T14:54:35.549Z,101826.31
2023-04-27T14:57:06.611Z,101827.19
2023-04-27T14:59:34.354Z,101811.44
2023-04-27T15:02:01.668Z,101804.38
2023-04-27T15:04:29.258Z,101806.19
2023-04-27T15:06:56.532Z,101798.25
2023-04-27T15:09:24.133Z,101799.97
2023-04-27T15:11:51.227Z,101812.28
2023-04-27T15:14:18.317Z,101809.50
2023-04-27T15:16:45.918Z,101790.13
2023-04-27T15:19:13.225Z,101798.00
2023-04-27T15:21:40.620Z,101800.66
2023-04-27T15:24:07.757Z,101792.59
2023-04-27T15:26:35.500Z,101790.72
2023-04-27T15:29:02.919Z,101773.19
2023-04-27T15:31:30.022Z,101779.31
2023-04-27T15:33:57.262Z,101782.97
2023-04-27T15:36:26.783Z,101773.38
2023-04-27T15:38:54.551Z,101774.19
2023-04-27T15:41:22.109Z,101774.41
2023-04-27T15:43:51.419Z,101788.56
2023-04-27T15:46:19.017Z,101777.16
2023-04-27T15:48:46.274Z,101770.94
2023-04-27T15:51:13.495Z,101747.25
2023-04-27T15:53:40.559Z,101754.25
2023-04-27T15:56:07.724Z,101757.50
2023-04-27T15:58:35.310Z,101756.72
2023-04-27T16:01:03.036Z,101748.13
2023-04-27T16:03:30.509Z,101748.25
2023-04-27T16:05:57.636Z,101753.63
2023-04-27T16:08:26.930Z,101752.75
2023-04-27T16:10:54.425Z,101756.09
2023-04-27T16:13:22.905Z,101741.25
2023-04-27T16:15:50.058Z,101752.72
2023-04-27T16:18:20.392Z,101744.13
2023-04-27T16:20:47.494Z,101736.31
2023-04-27T16:23:15.146Z,101736.28
2023-04-27T16:25:42.292Z,101724.06
2023-04-27T16:28:10.832Z,101725.84
2023-04-27T16:30:38.811Z,101718.72
2023-04-27T16:33:06.062Z,101722.88
2023-04-27T16:35:34.251Z,101713.91
2023-04-27T16:38:01.652Z,101722.22
2023-04-27T16:40:28.777Z,101720.28
2023-04-27T16:42:55.989Z,101708.75
2023-04-27T16:45:23.252Z,101701.81
2023-04-27T16:47:50.670Z,101706.81
2023-04-27T16:50:18.009Z,101697.16
2023-04-27T16:52:45.424Z,101690.88
2023-04-27T16:55:12.538Z,101683.19
2023-04-27T16:57:39.947Z,101677.72
2023-04-27T17:00:09.772Z,101680.31
2023-04-27T17:02:37.475Z,101682.16
2023-04-27T17:05:05.429Z,101667.28
2023-04-27T17:07:32.975Z,101675.84
2023-04-27T17:10:00.186Z,101653.97
2023-04-27T17:12:27.477Z,101676.56
2023-04-27T17:14:54.666Z,101679.09
2023-04-27T17:17:22.044Z,101680.84
2023-04-27T17:19:49.323Z,101680.72
2023-04-27T17:22:16.689Z,101699.00
2023-04-27T17:24:43.820Z,101689.88
2023-04-27T17:27:11.182Z,101686.31
2023-04-27T17:29:38.259Z,101689.63
2023-04-27T17:32:05.897Z,101689.22
2023-04-27T17:34:33.262Z,101682.91
2023-04-27T17:37:00.481Z,101695.88
2023-04-27T17:39:28.246Z,101684.31
2023-04-27T17:41:58.723Z,101680.69
2023-04-27T17:44:25.883Z,101683.88
2023-04-27T17:46:53.093Z,101681.81
2023-04-27T17:49:20.325Z,101682.50
2023-04-27T17:51:48.657Z,101678.66
2023-04-27T17:54:16.086Z,101697.63
2023-04-27T17:56:43.966Z,101685.47
2023-04-27T17:59:11.164Z,101689.63
2023-04-27T18:01:38.302Z,101691.22
2023-04-27T18:04:08.826Z,101686.44
2023-04-27T18:06:36.435Z,101680.22
2023-04-27T18:09:04.323Z,101681.97
2023-04-27T18:11:32.501Z,101671.47
2023-04-27T18:13:59.763Z,101660.00
2023-04-27T18:16:27.014Z,101665.97
2023-04-27T18:18:54.456Z,101671.09
2023-04-27T18:21:21.629Z,101657.13
2023-04-27T18:23:48.731Z,101670.16
2023-04-27T18:26:16.966Z,101663.97
2023-04-27T18:28:44.164Z,101670.88
2023-04-27T18:31:18.591Z,101663.94
2023-04-27T18:33:47.095Z,101663.81
2023-04-27T18:36:14.284Z,101663.69
2023-04-27T18:38:41.513Z,101669.78
2023-04-27T18:41:08.612Z,101662.81
2023-04-27T18:43:39.071Z,101664.41
2023-04-27T18:46:06.306Z,101669.47
2023-04-27T18:48:33.520Z,101672.75
2023-04-27T18:51:01.006Z,101662.13
2023-04-27T18:53:28.439Z,101670.78
2023-04-27T18:55:55.806Z,101661.09
2023-04-27T18:58:23.411Z,101668.19
2023-04-27T19:00:50.768Z,101665.44
2023-04-27T19:03:18.120Z,101666.25
2023-04-27T19:05:45.966Z,101673.13
2023-04-27T19:08:13.240Z,101656.47
2023-04-27T19:10:43.449Z,101657.38
2023-04-27T19:13:10.627Z,101659.03
2023-04-27T19:15:39.000Z,101658.13
2023-04-27T19:18:11.516Z,101655.47
2023-04-27T19:20:40.238Z,101660.53
2023-04-27T19:23:09.373Z,101654.44
2023-04-27T19:25:36.824Z,101652.53
2023-04-27T19:28:05.760Z,101653.38
2023-04-27T19:30:32.834Z,101655.13
2023-04-27T19:33:00.027Z,101655.09
2023-04-27T19:35:27.576Z,101649.03
2023-04-27T19:37:57.615Z,101648.91
2023-04-27T19:40:25.063Z,101648.94
2023-04-27T19:42:52.192Z,101644.56
2023-04-27T19:45:19.245Z,101647.19
2023-04-27T19:47:47.118Z,101642.72
2023-04-27T19:50:14.764Z,101651.41
2023-04-27T19:52:41.893Z,101654.03
2023-04-27T19:55:09.415Z,101653.09
2023-04-27T19:57:36.501Z,101643.34
2023-04-27T20:00:05.352Z,101645.19
2023-04-27T20:02:32.938Z,101633.81
2023-04-27T20:05:00.480Z,101631.31
2023-04-27T20:07:27.800Z,101637.28
2023-04-27T20:09:55.304Z,101631.22
2023-04-27T20:12:43.437Z,101634.66
2023-04-27T20:15:10.228Z,101634.66
2023-04-27T20:17:37.722Z,101645.84
2023-04-27T20:20:10.156Z,101634.50
2023-04-27T20:22:38.018Z,101630.16
2023-04-27T20:25:07.883Z,101626.63
2023-04-27T20:27:35.866Z,101618.69
2023-04-27T20:30:04.317Z,101617.81
2023-04-27T20:32:31.638Z,101617.72
2023-04-27T20:35:00.172Z,101610.66
2023-04-27T20:37:28.629Z,101606.22
2023-04-27T20:39:55.923Z,101606.25
2023-04-27T20:42:23.034Z,101605.41
2023-04-27T20:44:50.469Z,101591.34
2023-04-27T20:47:17.663Z,101592.19
2023-04-27T20:49:44.713Z,101588.44
2023-04-27T20:52:11.840Z,101589.31
2023-04-27T20:54:39.832Z,101585.75
2023-04-27T20:57:13.512Z,101583.22
2023-04-27T20:59:41.090Z,101576.28
2023-04-27T21:02:08.338Z,101570.06
2023-04-27T21:04:35.904Z,101570.88
2023-04-27T21:07:03.078Z,101573.34
2023-04-27T21:09:30.358Z,101571.44
2023-04-27T21:11:57.454Z,101563.47
2023-04-27T21:14:24.983Z,101562.53
2023-04-27T21:16:52.075Z,101558.16
2023-04-27T21:19:19.174Z,101547.66
2023-04-27T21:21:46.357Z,101544.84
2023-04-27T21:24:13.650Z,101552.47
2023-04-27T21:26:42.196Z,101547.31
2023-04-27T21:29:09.361Z,101535.09
2023-04-27T21:31:36.756Z,101534.97
2023-04-27T21:34:04.360Z,101540.34
2023-04-27T21:36:33.150Z,101526.28
2023-04-27T21:39:00.257Z,101534.22
2023-04-27T21:41:27.461Z,101525.34
2023-04-27T21:43:57.474Z,101523.66
2023-04-27T21:46:25.236Z,101522.88
2023-04-27T21:48:52.373Z,101506.28
2023-04-27T21:51:19.474Z,101508.94
2023-04-27T21:53:47.157Z,101499.28
2023-04-27T21:56:14.328Z,101493.31
2023-04-27T21:58:41.563Z,101499.22
2023-04-27T22:01:08.714Z,101495.72
2023-04-27T22:03:37.017Z,101483.50
2023-04-27T22:06:05.006Z,101473.94
2023-04-27T22:08:32.389Z,101481.81
2023-04-27T22:10:59.503Z,101475.66
2023-04-27T22:13:26.809Z,101464.50
2023-04-27T22:15:54.037Z,101467.75
2023-04-27T22:18:21.151Z,101471.19
2023-04-27T22:20:49.427Z,101465.88
2023-04-27T22:23:17.148Z,101453.72
2023-04-27T22:25:44.316Z,101458.91
2023-04-27T22:28:11.482Z,101443.09
2023-04-27T22:30:40.798Z,101446.69
2023-04-27T22:33:08.696Z,101445.94
2023-04-27T22:35:36.965Z,101440.78
2023-04-27T22:38:04.230Z,101450.34
2023-04-27T22:40:31.345Z,101447.75
2023-04-27T22:43:01.833Z,101429.47
2023-04-27T22:45:28.891Z,101435.53
2023-04-27T22:47:57.496Z,101430.50
2023-04-27T22:50:25.064Z,101432.03
2023-04-27T22:52:53.123Z,101421.53
2023-04-27T22:55:20.347Z,101426.09
2023-04-27T22:57:49.828Z,101420.06
2023-04-27T23:00:17.681Z,101408.81
2023-04-27T23:02:45.112Z,101417.53
2023-04-27T23:05:12.520Z,101416.63
2023-04-27T23:07:41.375Z,101416.63
2023-04-27T23:10:09.348Z,101423.38
2023-04-27T23:12:37.949Z,101416.41
2023-04-27T23:15:08.199Z,101425.88
2023-04-27T23:17:35.944Z,101412.00
2023-04-27T23:20:20.361Z,101417.28
2023-04-27T23:22:54.187Z,101415.59
2023-04-27T23:25:21.554Z,101414.66
2023-04-27T23:27:49.947Z,101412.84
2023-04-27T23:30:18.938Z,101418.88
2023-04-27T23:32:46.264Z,101399.00
2023-04-27T23:35:13.360Z,101393.81
2023-04-27T23:37:40.507Z,101381.59
2023-04-27T23:40:08.497Z,101389.44
2023-04-27T23:42:36.084Z,101384.16
2023-04-27T23:45:04.489Z,101369.53
2023-04-27T23:47:33.729Z,101367.69
2023-04-27T23:50:02.694Z,101354.75
2023-04-27T23:52:29.726Z,101353.88
2023-04-27T23:54:58.140Z,101336.50
2023-04-27T23:57:25.539Z,101315.66
2023-04-27T23:59:52.562Z,101332.91
